Time;durP1;ratioP1;P1;durP2;ratioP2;P2;SDS_P1;SDS_P2;PMS_P1;PMS_P2;Temp;Humidity;BMP_temperature;BMP_pressure;BME280_temperature;BME280_humidity;BME280_pressure;Samples;Min_cycle;Max_cycle;Signal;HPM_P1;HPM_P2
2022/04/19 00:02:53;;;;;;;3.90;3.50;;;;;;;;;;10381062;28;20093;-62
2022/04/19 00:07:52;;;;;;;3.63;3.33;;;;;;;;;;10380505;28;20079;-62
2022/04/19 00:12:51;;;;;;;4.55;4.10;;;;;;;;;;10381151;28;20090;-62
2022/04/19 00:17:49;;;;;;;4.35;3.95;;;;;;;;;;10383828;28;20067;-62
2022/04/19 00:22:48;;;;;;;4.25;3.58;;;;;;;;;;10384698;28;20060;-62
2022/04/19 00:27:47;;;;;;;4.28;3.88;;;;;;;;;;10374120;28;20523;-62
2022/04/19 00:32:46;;;;;;;4.00;3.60;;;;;;;;;;10375779;28;20158;-62
2022/04/19 00:37:45;;;;;;;4.03;3.47;;;;;;;;;;10377611;28;20063;-62
2022/04/19 00:42:43;;;;;;;4.03;3.35;;;;;;;;;;10376987;28;20082;-62
2022/04/19 00:47:43;;;;;;;3.63;3.33;;;;;;;;;;10380178;28;20079;-62
2022/04/19 00:52:43;;;;;;;3.92;3.28;;;;;;;;;;10380876;28;20094;-62
2022/04/19 00:57:42;;;;;;;3.22;2.88;;;;;;;;;;10384563;28;20078;-63
2022/04/19 01:02:45;;;;;;;3.28;2.97;;;;;;;;;;10381059;28;20552;-64
2022/04/19 01:07:46;;;;;;;5.18;3.35;;;;;;;;;;10378276;28;20484;-61
2022/04/19 01:18:07;;;;;;;3.78;3.10;;;;;;;;;;10381883;28;20071;-64
2022/04/19 01:23:10;;;;;;;4.07;3.75;;;;;;;;;;10375629;28;20070;-63
2022/04/19 01:28:08;;;;;;;4.40;3.25;;;;;;;;;;10375456;28;20093;-63
2022/04/19 01:33:06;;;;;;;3.55;3.25;;;;;;;;;;10375594;28;20086;-64
2022/04/19 01:38:06;;;;;;;3.22;2.92;;;;;;;;;;10379029;28;20640;-64
2022/04/19 01:43:09;;;;;;;11.15;5.70;;;;;;;;;;10376140;28;20087;-62
2022/04/19 01:48:21;;;;;;;4.55;3.13;;;;;;;;;;10380305;28;20508;-63
2022/04/19 01:53:19;;;;;;;6.30;5.20;;;;;;;;;;10376679;28;20094;-61
2022/04/19 01:58:19;;;;;;;6.22;5.72;;;;;;;;;;10379357;28;20074;-62
2022/04/19 02:03:18;;;;;;;5.25;3.80;;;;;;;;;;10373612;28;20070;-62
2022/04/19 02:08:16;;;;;;;5.63;3.55;;;;;;;;;;10369594;28;20071;-61
2022/04/19 02:13:14;;;;;;;5.43;3.83;;;;;;;;;;10379149;28;20079;-62
2022/04/19 02:18:43;;;;;;;5.10;4.60;;;;;;;;;;10374931;28;20500;-62
2022/04/19 02:23:42;;;;;;;4.22;3.83;;;;;;;;;;10374395;28;20082;-62
2022/04/19 02:28:40;;;;;;;4.97;4.53;;;;;;;;;;10369263;28;20082;-62
2022/04/19 02:33:48;;;;;;;4.57;4.10;;;;;;;;;;10379578;28;20075;-62
2022/04/19 02:38:48;;;;;;;4.03;3.70;;;;;;;;;;10375679;28;20086;-62
2022/04/19 02:43:47;;;;;;;4.80;4.30;;;;;;;;;;10376655;28;20078;-62
2022/04/19 02:48:45;;;;;;;4.93;4.43;;;;;;;;;;10378483;28;20101;-63
2022/04/19 02:53:45;;;;;;;5.43;4.93;;;;;;;;;;10376051;28;20537;-63
2022/04/19 02:58:45;;;;;;;5.63;5.10;;;;;;;;;;10382277;28;20083;-63
2022/04/19 03:03:43;;;;;;;5.55;4.45;;;;;;;;;;10383984;28;20090;-62
2022/04/19 03:08:45;;;;;;;4.38;3.97;;;;;;;;;;10377271;28;20095;-62
2022/04/19 03:13:44;;;;;;;4.63;3.97;;;;;;;;;;10374977;28;20080;-63
2022/04/19 03:18:46;;;;;;;5.13;4.35;;;;;;;;;;10378024;28;20082;-62
2022/04/19 03:29:02;;;;;;;4.13;3.58;;;;;;;;;;10384398;28;20121;-62
2022/04/19 03:34:03;;;;;;;4.93;3.95;;;;;;;;;;10386704;28;20075;-62
2022/04/19 03:39:03;;;;;;;6.82;4.32;;;;;;;;;;10397644;27;20060;-61
2022/04/19 03:44:01;;;;;;;5.40;3.83;;;;;;;;;;10378198;28;20493;-62
2022/04/19 03:49:00;;;;;;;6.15;4.40;;;;;;;;;;10381604;28;20075;-62
2022/04/19 03:54:00;;;;;;;5.97;4.50;;;;;;;;;;10382987;28;20069;-62
2022/04/19 03:59:00;;;;;;;6.78;4.88;;;;;;;;;;10381252;28;20074;-62
2022/04/19 04:03:58;;;;;;;6.05;5.22;;;;;;;;;;10385276;28;20530;-61
2022/04/19 04:08:57;;;;;;;13.00;9.48;;;;;;;;;;10380951;28;20087;-61
2022/04/19 04:13:56;;;;;;;12.40;6.70;;;;;;;;;;10382805;28;20075;-62
2022/04/19 04:18:55;;;;;;;13.30;9.15;;;;;;;;;;10381256;28;20090;-62
2022/04/19 04:23:54;;;;;;;8.30;4.82;;;;;;;;;;10377491;28;20067;-62
2022/04/19 04:28:53;;;;;;;10.40;7.03;;;;;;;;;;10385070;28;20496;-63
2022/04/19 04:33:51;;;;;;;9.30;4.63;;;;;;;;;;10371444;28;20445;-63
2022/04/19 04:38:52;;;;;;;82.22;42.85;;;;;;;;;;10372133;28;20063;-63
2022/04/19 04:44:02;;;;;;;18.38;12.52;;;;;;;;;;10384482;28;20515;-63
2022/04/19 04:54:18;;;;;;;19.70;16.88;;;;;;;;;;10374514;28;20105;-63
2022/04/19 04:59:17;;;;;;;9.00;8.05;;;;;;;;;;10380324;28;20485;-61
2022/04/19 05:04:15;;;;;;;11.40;8.85;;;;;;;;;;10374702;28;20067;-62
2022/04/19 05:09:14;;;;;;;13.05;10.90;;;;;;;;;;10379026;28;20146;-62
2022/04/19 05:14:14;;;;;;;27.80;21.90;;;;;;;;;;10375226;28;20082;-62
2022/04/19 05:19:13;;;;;;;9.98;7.88;;;;;;;;;;10379459;27;20487;-61
2022/04/19 05:24:17;;;;;;;13.40;6.45;;;;;;;;;;10378229;28;20365;-62
2022/04/19 05:29:17;;;;;;;6.18;5.30;;;;;;;;;;10384538;28;20133;-61
2022/04/19 05:34:16;;;;;;;5.65;5.05;;;;;;;;;;10373817;28;20090;-62
2022/04/19 05:39:14;;;;;;;11.35;9.85;;;;;;;;;;10372244;28;20071;-63
2022/04/19 05:44:14;;;;;;;6.00;5.40;;;;;;;;;;10377024;28;20083;-62
2022/04/19 05:49:14;;;;;;;17.27;13.32;;;;;;;;;;10377388;27;20067;-61
2022/04/19 05:54:15;;;;;;;9.55;8.52;;;;;;;;;;10373424;28;20082;-62
2022/04/19 05:59:14;;;;;;;6.20;4.88;;;;;;;;;;10370843;28;20071;-62
2022/04/19 06:09:26;;;;;;;7.68;6.88;;;;;;;;;;10376174;27;20075;-62
2022/04/19 06:14:24;;;;;;;6.03;4.57;;;;;;;;;;10378046;27;20480;-62
2022/04/19 06:19:25;;;;;;;4.07;3.63;;;;;;;;;;10378093;28;20336;-61
2022/04/19 06:24:23;;;;;;;6.13;4.70;;;;;;;;;;10366669;28;20064;-62
2022/04/19 06:29:22;;;;;;;6.18;5.07;;;;;;;;;;10367114;28;20101;-62
2022/04/19 06:34:27;;;;;;;8.55;5.05;;;;;;;;;;10374044;28;20071;-62
2022/04/19 06:39:34;;;;;;;5.95;5.35;;;;;;;;;;10366395;28;20075;-63
2022/04/19 06:44:33;;;;;;;8.88;7.85;;;;;;;;;;10366669;28;20695;-62
2022/04/19 06:49:42;;;;;;;6.78;5.18;;;;;;;;;;10372511;28;20083;-62
2022/04/19 06:54:41;;;;;;;10.70;7.82;;;;;;;;;;10376306;28;20060;-61
2022/04/19 06:59:40;;;;;;;8.82;7.93;;;;;;;;;;10376537;28;20523;-62
2022/04/19 07:04:39;;;;;;;7.03;5.65;;;;;;;;;;10382237;28;20645;-62
2022/04/19 07:09:42;;;;;;;6.93;6.03;;;;;;;;;;10379583;28;20098;-62
2022/04/19 07:14:40;;;;;;;8.68;7.13;;;;;;;;;;10377157;28;20067;-62
2022/04/19 07:30:18;;;;;;;5.88;5.28;;;;;;;;;;10375290;28;20090;-61
2022/04/19 07:35:17;;;;;;;18.92;14.52;;;;;;;;;;10381003;28;20067;-62
2022/04/19 07:40:17;;;;;;;15.77;10.02;;;;;;;;;;10381652;28;20083;-62
2022/04/19 07:45:17;;;;;;;21.45;15.70;;;;;;;;;;10382069;28;20106;-62
2022/04/19 07:50:15;;;;;;;6.68;5.97;;;;;;;;;;10380785;28;20098;-62
2022/04/19 07:55:14;;;;;;;14.70;10.07;;;;;;;;;;10376773;28;20067;-62
2022/04/19 08:00:14;;;;;;;13.27;8.02;;;;;;;;;;10383426;28;20112;-62
2022/04/19 08:05:12;;;;;;;46.55;11.80;;;;;;;;;;10383680;28;20055;-62
2022/04/19 08:10:12;;;;;;;12.77;10.75;;;;;;;;;;10371215;28;20068;-63
2022/04/19 08:15:11;;;;;;;7.07;6.25;;;;;;;;;;10384057;27;20160;-63
2022/04/19 08:20:13;;;;;;;6.38;5.53;;;;;;;;;;10380890;28;20063;-62
2022/04/19 08:25:11;;;;;;;5.68;5.05;;;;;;;;;;10381744;28;20067;-62
2022/04/19 08:30:10;;;;;;;5.10;4.60;;;;;;;;;;10381568;28;20079;-62
2022/04/19 08:35:10;;;;;;;28.40;7.28;;;;;;;;;;10382804;28;20169;-62
2022/04/19 08:40:10;;;;;;;11.18;8.57;;;;;;;;;;10384443;27;20071;-62
2022/04/19 08:45:10;;;;;;;10.80;7.25;;;;;;;;;;10380079;28;20106;-62
2022/04/19 08:50:11;;;;;;;8.35;6.03;;;;;;;;;;10380278;28;20083;-61
2022/04/19 09:00:28;;;;;;;6.15;5.07;;;;;;;;;;10377457;28;20070;-62
2022/04/19 09:05:27;;;;;;;7.60;5.68;;;;;;;;;;10373910;28;20060;-63
2022/04/19 09:10:28;;;;;;;12.40;7.88;;;;;;;;;;10382692;28;20071;-63
2022/04/19 09:15:32;;;;;;;4.65;4.25;;;;;;;;;;10374216;28;20068;-63
2022/04/19 09:20:31;;;;;;;6.25;4.53;;;;;;;;;;10380259;28;20055;-63
2022/04/19 09:25:32;;;;;;;24.70;10.38;;;;;;;;;;10379392;28;20063;-62
2022/04/19 09:30:31;;;;;;;5.30;4.47;;;;;;;;;;10370119;28;20082;-63
2022/04/19 09:35:30;;;;;;;4.90;4.38;;;;;;;;;;10370894;28;20444;-63
2022/04/19 09:40:29;;;;;;;9.07;8.07;;;;;;;;;;10382107;28;20063;-62
2022/04/19 09:45:29;;;;;;;9.75;4.35;;;;;;;;;;10377844;28;20465;-62
2022/04/19 09:50:27;;;;;;;8.43;7.15;;;;;;;;;;10378012;28;20543;-62
2022/04/19 09:55:25;;;;;;;9.43;6.60;;;;;;;;;;10378647;28;20078;-62
2022/04/19 10:00:23;;;;;;;8.90;8.00;;;;;;;;;;10371866;28;20068;-62
2022/04/19 10:10:39;;;;;;;6.03;4.25;;;;;;;;;;10381278;28;20170;-63
2022/04/19 10:15:37;;;;;;;5.35;4.80;;;;;;;;;;10373260;28;20103;-63
2022/04/19 10:20:40;;;;;;;6.88;6.05;;;;;;;;;;10378649;28;20064;-63
2022/04/19 10:25:43;;;;;;;6.10;5.32;;;;;;;;;;10377031;28;20083;-63
2022/04/19 10:30:47;;;;;;;8.45;7.47;;;;;;;;;;10373820;28;20071;-62
2022/04/19 10:36:00;;;;;;;6.20;4.82;;;;;;;;;;10373918;28;20071;-62
2022/04/19 10:41:00;;;;;;;5.68;4.95;;;;;;;;;;10380300;28;20070;-62
2022/04/19 10:46:13;;;;;;;5.68;5.15;;;;;;;;;;10384962;28;20071;-62
2022/04/19 10:51:26;;;;;;;5.43;4.85;;;;;;;;;;10382130;28;20401;-62
2022/04/19 10:56:26;;;;;;;4.40;4.00;;;;;;;;;;10370050;28;20114;-63
2022/04/19 11:01:28;;;;;;;4.60;3.83;;;;;;;;;;10378385;28;20070;-62
2022/04/19 11:06:31;;;;;;;5.72;5.10;;;;;;;;;;10378426;28;20071;-63
2022/04/19 11:11:43;;;;;;;5.03;4.63;;;;;;;;;;10381402;28;20071;-63
2022/04/19 11:16:51;;;;;;;7.05;5.68;;;;;;;;;;10380662;28;20075;-62
2022/04/19 11:21:52;;;;;;;9.90;3.92;;;;;;;;;;10381077;28;20055;-63
2022/04/19 11:26:51;;;;;;;4.97;3.65;;;;;;;;;;10382036;28;20514;-63
2022/04/19 11:32:04;;;;;;;4.55;4.15;;;;;;;;;;10361493;28;20071;-63
2022/04/19 11:37:04;;;;;;;8.65;6.97;;;;;;;;;;10380602;28;20070;-63
2022/04/19 11:47:24;;;;;;;3.80;3.28;;;;;;;;;;10384581;27;20102;-63
2022/04/19 11:52:23;;;;;;;4.25;3.72;;;;;;;;;;10388565;28;20067;-62
2022/04/19 11:57:24;;;;;;;5.25;4.57;;;;;;;;;;10385782;28;20113;-62
2022/04/19 12:02:22;;;;;;;7.00;5.90;;;;;;;;;;10387310;27;20519;-62
2022/04/19 12:07:20;;;;;;;4.57;4.18;;;;;;;;;;10388390;28;20121;-62
2022/04/19 12:12:20;;;;;;;5.28;4.78;;;;;;;;;;10390392;27;20070;-62
2022/04/19 12:17:21;;;;;;;5.20;4.32;;;;;;;;;;10387667;27;20066;-61
2022/04/19 12:22:20;;;;;;;6.93;3.80;;;;;;;;;;10387141;27;20063;-62
2022/04/19 12:27:23;;;;;;;4.63;4.03;;;;;;;;;;10388189;27;20063;-63
2022/04/19 12:32:23;;;;;;;4.85;4.30;;;;;;;;;;10388236;27;20069;-63
2022/04/19 12:37:21;;;;;;;7.78;4.50;;;;;;;;;;10386828;27;20059;-63
2022/04/19 12:42:19;;;;;;;8.07;4.68;;;;;;;;;;10387201;27;20460;-63
2022/04/19 12:47:19;;;;;;;16.30;11.30;;;;;;;;;;10428449;27;20067;-62
2022/04/19 12:52:19;;;;;;;7.80;6.55;;;;;;;;;;10427999;27;20070;-62
2022/04/19 12:57:23;;;;;;;7.60;5.07;;;;;;;;;;10427562;27;20063;-62
2022/04/19 13:02:21;;;;;;;9.33;5.53;;;;;;;;;;10427349;27;20063;-62
2022/04/19 13:12:53;;;;;;;5.45;4.38;;;;;;;;;;10402669;27;19958;-62
2022/04/19 13:17:51;;;;;;;15.00;9.80;;;;;;;;;;10430482;27;20124;-61
2022/04/19 13:22:49;;;;;;;21.48;15.80;;;;;;;;;;10429089;27;20050;-63
2022/04/19 13:27:48;;;;;;;14.50;10.73;;;;;;;;;;10428726;27;20075;-61
2022/04/19 13:32:48;;;;;;;18.13;13.95;;;;;;;;;;10427987;27;20070;-62
2022/04/19 13:43:02;;;;;;;10.15;7.78;;;;;;;;;;10427728;27;20080;-62
2022/04/19 13:48:01;;;;;;;8.93;6.85;;;;;;;;;;10428130;27;20234;-62
2022/04/19 13:53:01;;;;;;;19.35;13.73;;;;;;;;;;10427508;27;20077;-63
2022/04/19 13:57:59;;;;;;;8.48;5.45;;;;;;;;;;10427144;27;20586;-62
2022/04/19 14:02:57;;;;;;;16.70;14.95;;;;;;;;;;10426920;27;20059;-63
2022/04/19 14:07:57;;;;;;;7.72;7.03;;;;;;;;;;10425458;27;20066;-62
2022/04/19 14:12:56;;;;;;;8.60;6.05;;;;;;;;;;10426532;27;20074;-61
2022/04/19 14:17:55;;;;;;;4.97;4.43;;;;;;;;;;10426730;27;20473;-62
2022/04/19 14:22:53;;;;;;;11.07;8.90;;;;;;;;;;10423723;27;20065;-62
2022/04/19 14:27:53;;;;;;;22.80;12.90;;;;;;;;;;10424163;27;20453;-63
2022/04/19 14:38:06;;;;;;;19.58;11.52;;;;;;;;;;10426559;27;20059;-62
2022/04/19 14:43:06;;;;;;;7.68;4.65;;;;;;;;;;10425334;27;20515;-62
2022/04/19 14:48:05;;;;;;;4.30;3.90;;;;;;;;;;10423358;27;20063;-63
2022/04/19 14:53:03;;;;;;;5.53;4.60;;;;;;;;;;10423618;27;20124;-63
2022/04/19 14:58:02;;;;;;;5.97;5.38;;;;;;;;;;10425711;27;20070;-64
2022/04/19 15:03:02;;;;;;;6.38;4.82;;;;;;;;;;10425198;27;20071;-64
2022/04/19 15:08:01;;;;;;;6.65;5.13;;;;;;;;;;10425497;27;20333;-64
2022/04/19 15:12:59;;;;;;;29.58;17.42;;;;;;;;;;10425317;27;20075;-64
2022/04/19 15:17:57;;;;;;;10.02;6.45;;;;;;;;;;10423152;27;20071;-64
2022/04/19 15:22:57;;;;;;;6.15;3.80;;;;;;;;;;10431294;27;20094;-64
2022/04/19 15:27:55;;;;;;;16.27;13.52;;;;;;;;;;10433053;27;20082;-64
2022/04/19 15:32:53;;;;;;;10.82;9.82;;;;;;;;;;10432990;27;20070;-65
2022/04/19 15:37:52;;;;;;;7.43;5.55;;;;;;;;;;10431879;27;20515;-64
2022/04/19 15:42:51;;;;;;;7.07;5.07;;;;;;;;;;10432022;27;20082;-64
2022/04/19 15:47:49;;;;;;;5.63;4.63;;;;;;;;;;10430238;27;20075;-64
2022/04/19 15:52:48;;;;;;;4.85;4.38;;;;;;;;;;10430420;27;20078;-64
2022/04/19 15:57:46;;;;;;;4.80;3.10;;;;;;;;;;10432057;27;20378;-65
2022/04/19 16:02:46;;;;;;;9.93;7.80;;;;;;;;;;10428702;27;20063;-65
2022/04/19 16:07:44;;;;;;;11.77;9.30;;;;;;;;;;10430369;27;20074;-65
2022/04/19 16:12:46;;;;;;;29.55;21.83;;;;;;;;;;10430478;27;20305;-64
2022/04/19 16:28:17;;;;;;;;;;;;;;;;;;10426570;27;20128;-65
2022/04/19 16:33:17;;;;;;;10.57;7.93;;;;;;;;;;10428162;27;19969;-64
2022/04/19 16:38:16;;;;;;;8.32;6.00;;;;;;;;;;10427223;27;20467;-64
2022/04/19 16:43:15;;;;;;;18.13;12.23;;;;;;;;;;10430698;27;20071;-65
2022/04/19 16:48:13;;;;;;;7.00;4.72;;;;;;;;;;10427336;27;20484;-64
2022/04/19 16:53:13;;;;;;;7.65;5.30;;;;;;;;;;10430025;27;20074;-63
2022/04/19 16:58:11;;;;;;;13.48;8.80;;;;;;;;;;10427638;27;20078;-64
2022/04/19 17:08:32;;;;;;;6.40;4.32;;;;;;;;;;10428954;27;20084;-64
2022/04/19 17:13:31;;;;;;;5.47;3.33;;;;;;;;;;10420929;27;20077;-64
2022/04/19 17:18:29;;;;;;;4.45;4.05;;;;;;;;;;10427669;27;20074;-64
2022/04/19 17:23:27;;;;;;;7.15;5.03;;;;;;;;;;10430215;27;20069;-64
2022/04/19 17:28:28;;;;;;;9.15;6.53;;;;;;;;;;10423379;27;20067;-64
2022/04/19 17:33:27;;;;;;;16.95;14.50;;;;;;;;;;10429009;27;20066;-64
2022/04/19 17:38:26;;;;;;;21.25;19.15;;;;;;;;;;10427714;27;20479;-66
2022/04/19 17:43:25;;;;;;;16.67;15.00;;;;;;;;;;10424989;27;20082;-65
2022/04/19 17:48:24;;;;;;;12.40;11.23;;;;;;;;;;10427546;27;20063;-65
2022/04/19 17:58:40;;;;;;;13.05;11.85;;;;;;;;;;10421265;27;20082;-66
2022/04/19 18:03:39;;;;;;;12.68;8.35;;;;;;;;;;10418411;27;20059;-65
2022/04/19 18:08:38;;;;;;;12.63;11.32;;;;;;;;;;10420102;27;20063;-66
2022/04/19 18:13:36;;;;;;;7.60;6.90;;;;;;;;;;10421395;27;20071;-66
2022/04/19 18:18:36;;;;;;;9.32;5.30;;;;;;;;;;10423280;27;20594;-66
2022/04/19 18:28:53;;;;;;;11.48;8.57;;;;;;;;;;10413553;27;20108;-66
2022/04/19 18:33:51;;;;;;;11.45;8.93;;;;;;;;;;10421981;27;20086;-66
2022/04/19 18:38:51;;;;;;;15.02;11.27;;;;;;;;;;10425752;27;20062;-65
2022/04/19 18:43:49;;;;;;;13.13;11.75;;;;;;;;;;10412851;27;20432;-65
2022/04/19 18:48:48;;;;;;;14.50;11.48;;;;;;;;;;10423821;27;20061;-64
2022/04/19 18:53:46;;;;;;;13.10;10.43;;;;;;;;;;10397858;27;20555;-65
2022/04/19 18:58:47;;;;;;;6.40;5.80;;;;;;;;;;10412248;27;20071;-64
2022/04/19 19:03:45;;;;;;;7.78;6.68;;;;;;;;;;10415427;27;20503;-65
2022/04/19 19:08:44;;;;;;;17.38;12.07;;;;;;;;;;10413868;27;20154;-65
2022/04/19 19:13:43;;;;;;;24.30;21.08;;;;;;;;;;10419858;27;20059;-65
2022/04/19 19:18:42;;;;;;;6.95;6.00;;;;;;;;;;10420053;27;20087;-66
2022/04/19 19:23:42;;;;;;;7.13;6.07;;;;;;;;;;10411757;27;20141;-66
2022/04/19 19:28:41;;;;;;;5.70;4.97;;;;;;;;;;10418535;27;20059;-66
2022/04/19 19:33:39;;;;;;;7.13;5.18;;;;;;;;;;10412461;27;20061;-66
2022/04/19 19:38:39;;;;;;;5.50;3.95;;;;;;;;;;10417397;27;20078;-66
2022/04/19 19:43:38;;;;;;;5.63;3.80;;;;;;;;;;10416589;27;20075;-66
2022/04/19 19:48:37;;;;;;;9.25;6.13;;;;;;;;;;10419592;27;20073;-66
2022/04/19 19:53:35;;;;;;;6.93;4.68;;;;;;;;;;10413591;27;20142;-66
2022/04/19 19:58:35;;;;;;;7.13;5.72;;;;;;;;;;10422405;27;20075;-66
2022/04/19 20:03:34;;;;;;;4.85;4.20;;;;;;;;;;10417672;27;20082;-66
2022/04/19 20:08:32;;;;;;;5.13;4.60;;;;;;;;;;10418955;27;20066;-65
2022/04/19 20:13:30;;;;;;;5.22;3.40;;;;;;;;;;10428221;27;20405;-65
2022/04/19 20:18:30;;;;;;;4.85;4.35;;;;;;;;;;10418850;27;20130;-65
2022/04/19 20:23:28;;;;;;;6.68;5.68;;;;;;;;;;10429628;27;20530;-65
2022/04/19 20:28:26;;;;;;;8.73;5.82;;;;;;;;;;10429810;27;20525;-65
2022/04/19 20:33:25;;;;;;;4.53;3.50;;;;;;;;;;10430857;27;20074;-66
2022/04/19 20:38:24;;;;;;;3.70;3.40;;;;;;;;;;10430065;27;20521;-64
2022/04/19 20:43:23;;;;;;;7.53;6.22;;;;;;;;;;10429624;27;20086;-64
2022/04/19 20:53:36;;;;;;;;;;;;;;;;;;10431167;27;20609;-64
2022/04/19 20:58:36;;;;;;;9.50;7.70;;;;;;;;;;10428572;27;19962;-64
2022/04/19 21:03:34;;;;;;;4.13;3.72;;;;;;;;;;10430374;27;20059;-64
2022/04/19 21:08:32;;;;;;;4.50;3.47;;;;;;;;;;10424345;27;20070;-64
2022/04/19 21:13:31;;;;;;;4.90;3.85;;;;;;;;;;10431283;27;20564;-64
2022/04/19 21:18:30;;;;;;;4.50;4.15;;;;;;;;;;10423227;27;20062;-64
2022/04/19 21:23:28;;;;;;;7.63;4.55;;;;;;;;;;10427355;27;20063;-64
2022/04/19 21:28:27;;;;;;;13.15;12.00;;;;;;;;;;10425907;27;20073;-64
2022/04/19 21:33:25;;;;;;;14.57;13.18;;;;;;;;;;10427231;27;20067;-64
2022/04/19 21:38:24;;;;;;;4.72;3.78;;;;;;;;;;10428947;27;20059;-64
2022/04/19 21:43:22;;;;;;;3.30;2.72;;;;;;;;;;10421101;27;20074;-65
2022/04/19 21:48:21;;;;;;;4.10;3.70;;;;;;;;;;10427695;27;20071;-64
2022/04/19 21:53:19;;;;;;;4.38;3.97;;;;;;;;;;10428616;27;20101;-64
2022/04/19 21:58:18;;;;;;;27.55;12.48;;;;;;;;;;10425714;27;20067;-65
2022/04/19 22:03:16;;;;;;;4.53;4.13;;;;;;;;;;10426152;27;20065;-65
2022/04/19 22:08:15;;;;;;;4.50;2.85;;;;;;;;;;10420396;27;20102;-65
2022/04/19 22:13:13;;;;;;;5.20;4.40;;;;;;;;;;10426550;27;20066;-64
2022/04/19 22:18:12;;;;;;;4.18;3.88;;;;;;;;;;10427235;27;20443;-63
2022/04/19 22:23:10;;;;;;;3.47;3.17;;;;;;;;;;10425357;27;20117;-65
2022/04/19 22:28:09;;;;;;;8.80;5.22;;;;;;;;;;10426771;27;20471;-64
2022/04/19 22:33:07;;;;;;;21.73;9.30;;;;;;;;;;10426764;27;20058;-64
2022/04/19 22:38:06;;;;;;;48.45;21.00;;;;;;;;;;10421934;27;20071;-65
2022/04/19 22:43:04;;;;;;;14.77;13.30;;;;;;;;;;10424017;27;20086;-64
2022/04/19 22:48:03;;;;;;;5.22;4.32;;;;;;;;;;10425393;27;20077;-64
2022/04/19 22:53:01;;;;;;;3.97;3.67;;;;;;;;;;10427242;27;20055;-64
2022/04/19 22:58:01;;;;;;;3.85;3.45;;;;;;;;;;10418467;27;20081;-64
2022/04/19 23:02:59;;;;;;;4.25;3.85;;;;;;;;;;10413294;27;20074;-64
2022/04/19 23:07:58;;;;;;;7.72;5.72;;;;;;;;;;10419459;27;20483;-64
2022/04/19 23:12:56;;;;;;;4.60;4.20;;;;;;;;;;10421864;27;20055;-64
2022/04/19 23:17:56;;;;;;;5.13;4.72;;;;;;;;;;10423245;27;20070;-64
2022/04/19 23:22:54;;;;;;;4.28;3.88;;;;;;;;;;10424110;27;20062;-64
2022/04/19 23:27:57;;;;;;;4.18;3.38;;;;;;;;;;10426178;27;20522;-64
2022/04/19 23:32:57;;;;;;;4.47;3.78;;;;;;;;;;10423704;27;20070;-64
2022/04/19 23:37:55;;;;;;;3.30;3.00;;;;;;;;;;10426430;27;20067;-65
2022/04/19 23:42:53;;;;;;;9.90;8.98;;;;;;;;;;10427475;27;20121;-65
2022/04/19 23:47:51;;;;;;;8.90;8.10;;;;;;;;;;10430223;27;20066;-64
2022/04/19 23:52:51;;;;;;;6.18;5.57;;;;;;;;;;10415904;27;20078;-64
2022/04/19 23:57:49;;;;;;;4.03;3.63;;;;;;;;;;10431984;27;20071;-64
